Airfield :







YOU CAN JOIN US ON...

 
LOGIN :

Register | Disclaimer

   EN    FR    IT 

 









Legend :    VFR   Marginal VFR   IFR   Intensive IFR   Very Intensive IFR
Visi :
Ceiling :
>= 8 km
>= 3000ft
5 to 8 km
1000 to 3000 ft
1500m to 5 km
500 to 1000 ft
800 to 1500m
200 to 500 ft
< 800m
< 200 ft
Symbols :   Thunderstorms  Fog  Heavy snow  Heavy precipitations  Wind > 20 kt







- Airport Elevation : 326 ft
- IATA code : VEY


BIVM - Vestmannaeyjar

CURRENT METAR :
  • 211100Z 22018KT 9999 FEW015 BKN025 02/M00 Q1006

EXPIRED METARs :
  • 211000Z 23014KT 9999 FEW010 BKN020 01/M01 Q1007
  • 210900Z 21011KT 9999 FEW010 BKN025 01/M01 Q1007

TAF TAF BIVM
Valid from the 21 at 11:00 until the 21 at 20:00 UTC


211027Z 2111/2120 25015KT 9999 -SHSN SCT010 BKN025
TEMPO 2111/2120 23020G30KT 1500 SHSN BKN005CB OVC010
No reported NOTAMs for that airfield.



MET'MAP, your aeronautical weather chart ! - Copyright ORBIFLY December 2007 - Disclaimer

ORBIFLY MET'MAP TEAM :

Programming & Development : Alexandra Zaïnal
Concept & Development : Baudouin d'Aumeries
Co-Development & Prog : Marc-Olivier Méhu
Technical & hardware support : Manuel Goepfert

Contact : metmap@orbifly.com




SOURCES & CREDITS :

   NOAA